createdAt,value
2022-11-17T00:02:09.955Z,98736.91
2022-11-17T00:04:37.628Z,98735.03
2022-11-17T00:07:05.331Z,98731.81
2022-11-17T00:09:33.011Z,98722.66
2022-11-17T00:12:22.322Z,98710.00
2022-11-17T00:14:51.808Z,98701.41
2022-11-17T00:17:19.525Z,98700.59
2022-11-17T00:20:04.680Z,98705.19
2022-11-17T00:22:33.005Z,98688.72
2022-11-17T00:25:00.796Z,98677.97
2022-11-17T00:27:28.594Z,98665.13
2022-11-17T00:29:58.004Z,98665.59
2022-11-17T00:32:43.516Z,98654.00
2022-11-17T00:35:11.353Z,98653.19
2022-11-17T00:38:00.720Z,98659.38
2022-11-17T00:40:28.395Z,98645.13
2022-11-17T00:42:56.093Z,98654.00
2022-11-17T00:45:25.139Z,98646.09
2022-11-17T00:47:52.781Z,98641.84
2022-11-17T00:50:20.476Z,98642.94
2022-11-17T00:52:48.172Z,98637.28
2022-11-17T00:55:15.998Z,98637.00
2022-11-17T00:57:43.706Z,98632.97
2022-11-17T01:00:12.296Z,98632.47
2022-11-17T01:02:41.353Z,98612.81
2022-11-17T01:05:09.406Z,98620.88
2022-11-17T01:07:37.128Z,98612.00
2022-11-17T01:10:05.249Z,98606.63
2022-11-17T01:12:32.958Z,98589.38
2022-11-17T01:15:00.931Z,98562.44
2022-11-17T01:17:28.620Z,98564.06
2022-11-17T01:19:57.590Z,98557.41
2022-11-17T01:22:25.306Z,98576.13
2022-11-17T01:24:52.937Z,98576.94
2022-11-17T01:27:20.576Z,98575.34
2022-11-17T01:29:48.798Z,98566.47
2022-11-17T01:32:16.458Z,98569.44
2022-11-17T01:34:44.140Z,98567.03
2022-11-17T01:37:22.313Z,98559.75
2022-11-17T01:39:50.662Z,98539.97
2022-11-17T01:42:21.150Z,98548.97
2022-11-17T01:44:58.109Z,98540.09
2022-11-17T01:47:32.381Z,98542.78
2022-11-17T01:50:04.936Z,98542.00
2022-11-17T01:52:38.508Z,98540.09
2022-11-17T01:55:09.395Z,98542.78
2022-11-17T01:57:40.168Z,98547.09
2022-11-17T02:00:10.717Z,98535.22
2022-11-17T02:02:40.379Z,98516.66
2022-11-17T02:05:17.583Z,98509.69
2022-11-17T02:07:48.282Z,98490.81
2022-11-17T02:10:16.461Z,98531.81
2022-11-17T02:12:46.248Z,98542.56
2022-11-17T02:15:14.119Z,98522.63
2022-11-17T02:17:43.759Z,98503.78
2022-11-17T02:20:14.309Z,98508.38
2022-11-17T02:23:24.939Z,98520.22
2022-11-17T02:26:17.330Z,98518.34
2022-11-17T02:28:54.181Z,98506.75
2022-11-17T02:31:27.712Z,98510.25
2022-11-17T02:34:06.852Z,98501.09
2022-11-17T02:36:43.296Z,98488.72
2022-11-17T02:39:20.142Z,98480.94
2022-11-17T02:41:53.316Z,98470.66
2022-11-17T02:44:25.895Z,98480.63
2022-11-17T02:46:57.061Z,98469.56
2022-11-17T02:49:28.600Z,98453.41
2022-11-17T02:51:58.490Z,98444.84
2022-11-17T02:54:29.191Z,98445.63
2022-11-17T02:56:56.963Z,98436.75
2022-11-17T02:59:30.760Z,98441.34
2022-11-17T03:02:33.508Z,98440.53
2022-11-17T03:05:13.236Z,98443.22
2022-11-17T03:07:52.618Z,98428.16
2022-11-17T03:10:26.609Z,98407.03
2022-11-17T03:13:01.535Z,98428.38
2022-11-17T03:15:44.778Z,98429.47
2022-11-17T03:18:30.205Z,98430.28
2022-11-17T03:21:07.338Z,98428.91
2022-11-17T03:23:43.070Z,98423.78
2022-11-17T03:26:14.133Z,98415.44
2022-11-17T03:28:43.828Z,98415.72
2022-11-17T03:31:16.117Z,98406.84
2022-11-17T03:33:49.132Z,98410.03
2022-11-17T03:36:19.676Z,98403.06
2022-11-17T03:38:52.936Z,98400.66
2022-11-17T03:41:23.040Z,98394.47
2022-11-17T03:43:52.486Z,98397.16
2022-11-17T03:46:23.277Z,98394.47
2022-11-17T03:48:54.881Z,98382.09
2022-11-17T03:51:25.881Z,98371.13
2022-11-17T03:53:54.650Z,98378.91
2022-11-17T03:56:32.076Z,98379.69
2022-11-17T03:59:03.685Z,98383.19
2022-11-17T04:01:34.581Z,98386.19
2022-11-17T04:04:02.248Z,98377.28
2022-11-17T04:06:29.959Z,98372.72
2022-11-17T04:08:57.631Z,98370.03
2022-11-17T04:11:43.115Z,98368.41
2022-11-17T04:14:28.481Z,98370.03
2022-11-17T04:16:57.471Z,98372.72
2022-11-17T04:19:25.123Z,98370.81
2022-11-17T04:21:52.835Z,98373.81
2022-11-17T04:24:20.482Z,98383.81
2022-11-17T04:27:05.913Z,98381.13
2022-11-17T04:29:34.126Z,98381.88
2022-11-17T04:32:03.172Z,98378.09
2022-11-17T04:34:30.876Z,98376.81
2022-11-17T04:36:59.403Z,98365.25
2022-11-17T04:39:29.290Z,98350.19
2022-11-17T04:41:57.548Z,98342.91
2022-11-17T04:44:27.134Z,98341.03
2022-11-17T04:46:55.692Z,98335.63
2022-11-17T04:49:26.427Z,98321.38
2022-11-17T04:51:54.993Z,98326.75
2022-11-17T04:54:25.132Z,98330.53
2022-11-17T04:56:53.983Z,98332.44
2022-11-17T04:59:22.117Z,98328.66
2022-11-17T05:01:50.033Z,98332.16
2022-11-17T05:04:40.266Z,98325.66
2022-11-17T05:07:09.724Z,98335.63
2022-11-17T05:09:37.679Z,98327.56
2022-11-17T05:12:23.129Z,98336.91
2022-11-17T05:14:50.784Z,98359.25
2022-11-17T05:17:17.677Z,98365.72
2022-11-17T05:19:47.098Z,98373.31
2022-11-17T05:22:35.588Z,98359.56
2022-11-17T05:25:03.857Z,98367.31
2022-11-17T05:27:31.774Z,98378.09
2022-11-17T05:29:59.516Z,98372.72
2022-11-17T05:32:27.261Z,98373.81
2022-11-17T05:34:54.968Z,98379.19
2022-11-17T05:37:24.025Z,98372.72
2022-11-17T05:39:51.705Z,98376.50
2022-11-17T05:42:19.573Z,98381.13
2022-11-17T05:44:48.500Z,98385.38
2022-11-17T05:47:16.520Z,98391.88
2022-11-17T05:49:44.390Z,98392.28
2022-11-17T05:52:12.065Z,98389.59
2022-11-17T05:54:41.022Z,98396.06
2022-11-17T05:57:14.216Z,98392.28
2022-11-17T05:59:46.734Z,98396.59
2022-11-17T06:02:18.586Z,98405.47
2022-11-17T06:04:47.285Z,98405.47
2022-11-17T06:07:15.147Z,98412.38
2022-11-17T06:09:44.172Z,98409.16
2022-11-17T06:12:12.801Z,98405.97
2022-11-17T06:14:40.460Z,98414.63
2022-11-17T06:17:13.434Z,98418.47
2022-11-17T06:19:46.316Z,98415.56
2022-11-17T06:22:14.147Z,98416.50
2022-11-17T06:24:45.989Z,98424.88
2022-11-17T06:27:16.018Z,98431.50
2022-11-17T06:29:45.270Z,98427.34
2022-11-17T06:32:14.853Z,98435.50
2022-11-17T06:34:43.213Z,98442.28
2022-11-17T06:37:11.422Z,98434.78
2022-11-17T06:39:39.081Z,98431.72
2022-11-17T06:42:08.105Z,98437.31
2022-11-17T06:44:35.762Z,98445.25
2022-11-17T06:47:03.457Z,98448.53
2022-11-17T06:49:31.082Z,98452.41
2022-11-17T06:51:58.722Z,98449.63
2022-11-17T06:54:26.444Z,98448.63
2022-11-17T06:56:55.418Z,98445.53
2022-11-17T06:59:24.479Z,98459.59
2022-11-17T07:01:52.183Z,98461.94
2022-11-17T07:04:19.965Z,98464.69
2022-11-17T07:06:47.681Z,98468.50
2022-11-17T07:09:15.419Z,98471.31
2022-11-17T07:11:43.098Z,98475.09
2022-11-17T07:14:11.063Z,98474.09
2022-11-17T07:16:42.677Z,98476.53
2022-11-17T07:19:10.920Z,98476.34
2022-11-17T07:21:38.781Z,98477.88
2022-11-17T07:24:06.955Z,98486.41
2022-11-17T07:26:34.700Z,98490.84
2022-11-17T07:29:02.440Z,98492.22
2022-11-17T07:31:31.293Z,98490.66
2022-11-17T07:34:00.393Z,98495.72
2022-11-17T07:36:28.194Z,98501.03
2022-11-17T07:38:55.904Z,98504.09
2022-11-17T07:41:23.639Z,98506.72
2022-11-17T07:43:51.408Z,98514.84
2022-11-17T07:46:19.120Z,98517.63
2022-11-17T07:48:46.830Z,98516.97
2022-11-17T07:51:17.201Z,98526.66
2022-11-17T07:53:44.954Z,98519.97
2022-11-17T07:56:13.499Z,98527.00
2022-11-17T07:58:41.572Z,98532.69
2022-11-17T08:01:10.893Z,98524.75
2022-11-17T08:03:38.700Z,98518.50
2022-11-17T08:06:07.936Z,98530.53
2022-11-17T08:08:38.100Z,98522.88
2022-11-17T08:11:07.202Z,98541.00
2022-11-17T08:13:35.699Z,98544.41
2022-11-17T08:16:03.660Z,98547.84
2022-11-17T08:18:32.282Z,98545.22
2022-11-17T08:21:04.450Z,98550.25
2022-11-17T08:23:32.158Z,98555.50
2022-11-17T08:26:02.332Z,98557.47
2022-11-17T08:28:30.591Z,98560.59
2022-11-17T08:30:58.437Z,98548.56
2022-11-17T08:33:26.185Z,98568.16
2022-11-17T08:35:53.930Z,98568.22
2022-11-17T08:38:21.610Z,98565.53
2022-11-17T08:40:49.340Z,98567.19
2022-11-17T08:43:18.395Z,98572.22
2022-11-17T08:45:46.123Z,98581.16
2022-11-17T08:48:13.828Z,98570.72
2022-11-17T08:50:41.588Z,98572.66
2022-11-17T08:53:14.756Z,98571.16
2022-11-17T08:55:42.551Z,98583.81
2022-11-17T08:58:10.424Z,98590.31
2022-11-17T09:00:39.967Z,98587.84
2022-11-17T09:03:08.772Z,98585.94
2022-11-17T09:05:39.867Z,98591.81
2022-11-17T09:08:30.250Z,98593.41
2022-11-17T09:10:55.791Z,98594.88
2022-11-17T09:13:23.556Z,98598.41
2022-11-17T09:15:52.607Z,98603.59
2022-11-17T09:18:20.312Z,98606.56
2022-11-17T09:20:48.002Z,98601.75
2022-11-17T09:23:15.704Z,98604.44
2022-11-17T09:25:43.429Z,98603.75
2022-11-17T09:28:11.072Z,98616.25
2022-11-17T09:30:38.810Z,98610.44
2022-11-17T09:33:07.890Z,98617.16
2022-11-17T09:35:35.600Z,98623.19
2022-11-17T09:38:03.302Z,98619.28
2022-11-17T09:40:37.444Z,98627.47
2022-11-17T09:43:09.726Z,98623.94
2022-11-17T09:45:40.879Z,98637.84
2022-11-17T09:51:05.197Z,98643.69
2022-11-17T09:53:44.345Z,98641.81
2022-11-17T09:56:14.544Z,98652.41
2022-11-17T09:58:46.836Z,98650.06
2022-11-17T10:01:17.098Z,98656.59
2022-11-17T10:03:48.498Z,98655.28
2022-11-17T10:06:20.376Z,98655.56
2022-11-17T10:08:58.189Z,98664.63
2022-11-17T10:11:33.058Z,98675.38
2022-11-17T10:14:05.000Z,98666.50
2022-11-17T10:16:32.748Z,98673.78
2022-11-17T10:19:03.400Z,98681.00
2022-11-17T10:21:31.507Z,98677.44
2022-11-17T10:24:00.443Z,98680.88
2022-11-17T10:26:28.178Z,98680.38
2022-11-17T10:29:22.987Z,98693.03
2022-11-17T10:31:51.088Z,98686.56
2022-11-17T10:34:40.306Z,98688.75
2022-11-17T10:37:26.481Z,98692.25
2022-11-17T10:40:10.774Z,98704.34
2022-11-17T10:42:38.553Z,98703.59
2022-11-17T10:45:07.510Z,98704.72
2022-11-17T10:47:39.367Z,98699.72
2022-11-17T10:50:18.638Z,98706.06
2022-11-17T10:52:47.110Z,98702.84
2022-11-17T10:55:25.419Z,98716.72
2022-11-17T10:57:57.543Z,98709.78
2022-11-17T11:00:29.542Z,98710.34
2022-11-17T11:03:18.651Z,98713.84
2022-11-17T11:06:22.644Z,98712.53
2022-11-17T11:08:56.022Z,98719.47
2022-11-17T11:11:36.767Z,98709.91
2022-11-17T11:14:13.166Z,98719.88
2022-11-17T11:16:47.625Z,98722.63
2022-11-17T11:19:17.687Z,98721.34
2022-11-17T11:22:13.019Z,98724.28
2022-11-17T11:24:52.111Z,98715.69
2022-11-17T11:27:36.151Z,98736.44
2022-11-17T11:30:06.852Z,98722.44
2022-11-17T11:32:46.314Z,98730.28
2022-11-17T11:35:35.784Z,98749.66
2022-11-17T11:38:15.941Z,98747.16
2022-11-17T11:40:48.949Z,98749.78
2022-11-17T11:43:32.107Z,98751.16
2022-11-17T11:46:09.295Z,98761.03
2022-11-17T11:48:41.304Z,98764.94
2022-11-17T11:51:15.643Z,98765.56
2022-11-17T11:53:52.836Z,98773.41
2022-11-17T11:56:25.642Z,98767.78
2022-11-17T11:58:59.777Z,98774.81
2022-11-17T12:01:29.940Z,98768.53
2022-11-17T12:04:14.998Z,98768.47
2022-11-17T12:06:49.989Z,98772.06
2022-11-17T12:09:51.920Z,98770.75
2022-11-17T12:12:26.810Z,98772.94
2022-11-17T12:15:37.034Z,98770.53
2022-11-17T12:18:14.268Z,98774.00
2022-11-17T12:20:53.797Z,98767.03
2022-11-17T12:23:35.651Z,98780.22
2022-11-17T12:26:05.027Z,98774.81
2022-11-17T12:28:35.742Z,98779.88
2022-11-17T12:31:09.748Z,98783.94
2022-11-17T12:34:12.016Z,98786.13
2022-11-17T12:36:39.904Z,98777.22
2022-11-17T12:39:27.620Z,98790.69
2022-11-17T12:42:09.163Z,98789.59
2022-11-17T12:44:58.331Z,98789.75
2022-11-17T12:47:28.226Z,98786.59
2022-11-17T12:50:27.227Z,98802.50
2022-11-17T12:53:20.622Z,98800.91
2022-11-17T12:56:29.953Z,98802.00
2022-11-17T12:59:17.008Z,98798.78
2022-11-17T13:01:53.624Z,98789.03
2022-11-17T13:04:26.367Z,98804.97
2022-11-17T13:07:02.101Z,98786.41
2022-11-17T13:09:31.274Z,98802.56
2022-11-17T13:12:04.275Z,98803.78
2022-11-17T13:14:33.871Z,98803.31
2022-11-17T13:17:02.771Z,98806.28
2022-11-17T13:19:33.786Z,98818.16
2022-11-17T13:22:03.706Z,98804.63
2022-11-17T13:24:33.735Z,98811.59
2022-11-17T13:27:02.496Z,98810.53
2022-11-17T13:29:30.353Z,98820.56
2022-11-17T13:32:16.208Z,98826.22
2022-11-17T13:34:53.161Z,98828.94
2022-11-17T13:37:24.305Z,98826.53
2022-11-17T13:39:57.116Z,98833.50
2022-11-17T13:42:27.416Z,98829.78
2022-11-17T13:44:57.204Z,98835.78
2022-11-17T13:47:42.467Z,98828.28
2022-11-17T13:50:37.229Z,98838.00
2022-11-17T13:53:24.111Z,98833.72
2022-11-17T13:55:52.628Z,98828.38
2022-11-17T13:58:41.714Z,98835.06
2022-11-17T14:01:13.103Z,98838.06
2022-11-17T14:03:43.444Z,98849.91
2022-11-17T14:06:13.158Z,98835.88
2022-11-17T14:08:44.209Z,98844.53
2022-11-17T14:11:21.140Z,98844.00
2022-11-17T14:13:51.412Z,98845.91
2022-11-17T14:16:26.538Z,98852.94
2022-11-17T14:19:01.728Z,98847.97
2022-11-17T14:21:30.279Z,98858.09
2022-11-17T14:24:12.916Z,98871.28
2022-11-17T14:26:45.342Z,98858.94
2022-11-17T14:29:14.227Z,98867.59
2022-11-17T14:31:42.165Z,98872.72
2022-11-17T14:34:11.261Z,98866.50
2022-11-17T14:36:40.369Z,98861.97
2022-11-17T14:39:15.332Z,98864.38
2022-11-17T14:41:43.258Z,98858.66
2022-11-17T14:44:11.232Z,98861.97
2022-11-17T14:46:39.028Z,98866.28
2022-11-17T14:49:07.150Z,98881.63
2022-11-17T14:51:36.284Z,98885.13
2022-11-17T14:54:04.127Z,98877.34
2022-11-17T14:56:31.828Z,98887.59
2022-11-17T14:59:01.122Z,98885.19
2022-11-17T15:01:31.085Z,98894.63
2022-11-17T15:04:10.992Z,98891.19
2022-11-17T15:06:50.598Z,98896.72
2022-11-17T15:09:20.438Z,98904.28
2022-11-17T15:11:48.258Z,98906.72
2022-11-17T15:14:16.365Z,98903.00
2022-11-17T15:16:44.735Z,98909.75
2022-11-17T15:19:13.183Z,98911.09
2022-11-17T15:21:40.972Z,98913.28
2022-11-17T15:24:10.275Z,98910.31
2022-11-17T15:26:38.018Z,98912.19
2022-11-17T15:29:05.749Z,98908.69
2022-11-17T15:31:33.508Z,98907.09
2022-11-17T15:34:02.334Z,98915.44
2022-11-17T15:36:30.042Z,98924.91
2022-11-17T15:38:57.743Z,98925.69
2022-11-17T15:41:31.444Z,98934.59
2022-11-17T15:44:00.694Z,98929.72
2022-11-17T15:46:28.524Z,98931.88
2022-11-17T15:48:56.737Z,98934.59
2022-11-17T15:51:26.399Z,98933.25
2022-11-17T15:53:57.374Z,98937.81
2022-11-17T15:56:27.655Z,98945.84
2022-11-17T15:58:57.362Z,98945.06
2022-11-17T16:01:29.803Z,98949.91
2022-11-17T16:04:02.103Z,98949.03
2022-11-17T16:06:30.283Z,98960.53
2022-11-17T16:08:58.316Z,98957.41
2022-11-17T16:11:27.691Z,98957.78
2022-11-17T16:13:56.234Z,98971.72
2022-11-17T16:16:25.041Z,98959.22
2022-11-17T16:18:52.736Z,98972.06
2022-11-17T16:21:20.718Z,98974.31
2022-11-17T16:23:50.154Z,98974.22
2022-11-17T16:26:19.641Z,98975.19
2022-11-17T16:28:48.851Z,98976.16
2022-11-17T16:31:18.893Z,98981.44
2022-11-17T16:33:50.754Z,98970.78
2022-11-17T16:36:19.252Z,98978.75
2022-11-17T16:39:00.275Z,98982.53
2022-11-17T16:41:30.228Z,98979.97
2022-11-17T16:43:59.393Z,98987.69
2022-11-17T16:46:29.727Z,98995.47
2022-11-17T16:48:58.349Z,98998.84
2022-11-17T16:51:26.059Z,99004.06
2022-11-17T16:53:57.550Z,99000.13
2022-11-17T16:56:25.292Z,99002.59
2022-11-17T16:58:53.277Z,99009.38
2022-11-17T17:01:24.058Z,99010.78
2022-11-17T17:03:56.871Z,99023.00
2022-11-17T17:06:25.266Z,99009.84
2022-11-17T17:08:56.688Z,99017.69
2022-11-17T17:11:24.650Z,99012.56
2022-11-17T17:13:52.488Z,99014.50
2022-11-17T17:16:22.271Z,99017.75
2022-11-17T17:18:54.587Z,99018.03
2022-11-17T17:21:22.302Z,99018.31
2022-11-17T17:23:49.974Z,99017.78
2022-11-17T17:26:20.203Z,99016.19
2022-11-17T17:28:49.659Z,99023.50
2022-11-17T17:31:21.595Z,99025.16
2022-11-17T17:33:51.977Z,99021.97
2022-11-17T17:36:21.478Z,99031.13
2022-11-17T17:38:55.127Z,99038.97
2022-11-17T17:41:24.595Z,99035.19
2022-11-17T17:43:56.977Z,99045.44
2022-11-17T17:46:25.384Z,99037.34
2022-11-17T17:48:54.472Z,99047.59
2022-11-17T17:51:24.976Z,99053.78
2022-11-17T17:53:53.288Z,99052.19
2022-11-17T17:56:22.656Z,99052.19
2022-11-17T17:58:51.719Z,99063.50
2022-11-17T18:01:21.583Z,99062.69
2022-11-17T18:03:51.523Z,99071.84
2022-11-17T18:06:22.468Z,99072.66
2022-11-17T18:08:50.550Z,99079.66
2022-11-17T18:11:19.825Z,99077.25
2022-11-17T18:13:49.674Z,99084.72
2022-11-17T18:16:21.349Z,99080.03
2022-11-17T18:18:49.953Z,99082.38
2022-11-17T18:21:20.428Z,99083.69
2022-11-17T18:23:48.390Z,99081.50
2022-11-17T18:26:19.600Z,99083.34
2022-11-17T18:28:52.528Z,99083.56
2022-11-17T18:31:21.118Z,99093.22
2022-11-17T18:33:51.953Z,99091.81
2022-11-17T18:36:21.964Z,99086.94
2022-11-17T18:38:51.018Z,99097.78
2022-11-17T18:41:18.898Z,99109.44
2022-11-17T18:43:46.845Z,99110.03
2022-11-17T18:46:16.227Z,99114.94
2022-11-17T18:48:46.074Z,99121.97
2022-11-17T18:51:19.833Z,99114.72
2022-11-17T18:53:50.107Z,99127.13
2022-11-17T18:56:20.144Z,99131.75
2022-11-17T18:58:48.170Z,99131.50
2022-11-17T19:01:18.355Z,99133.41
2022-11-17T19:03:48.288Z,99140.69
2022-11-17T19:06:17.037Z,99137.47
2022-11-17T19:08:45.048Z,99136.94
2022-11-17T19:11:14.555Z,99122.16
2022-11-17T19:13:44.212Z,99130.47
2022-11-17T19:16:14.816Z,99138.81
2022-11-17T19:18:43.475Z,99151.50
2022-11-17T19:21:13.283Z,99152.03
2022-11-17T19:23:46.572Z,99152.56
2022-11-17T19:26:20.552Z,99148.84
2022-11-17T19:28:48.936Z,99162.56
2022-11-17T19:31:18.848Z,99165.00
2022-11-17T19:33:47.911Z,99162.56
2022-11-17T19:36:17.679Z,99162.81
2022-11-17T19:38:48.067Z,99162.31
2022-11-17T19:41:19.391Z,99172.56
2022-11-17T19:43:47.649Z,99167.72
2022-11-17T19:46:17.293Z,99180.38
2022-11-17T19:48:45.471Z,99169.34
2022-11-17T19:51:16.393Z,99181.22
2022-11-17T19:53:44.456Z,99184.72
2022-11-17T19:56:12.494Z,99186.91
2022-11-17T19:58:42.168Z,99188.25
2022-11-17T20:01:12.249Z,99191.50
2022-11-17T20:03:40.853Z,99193.66
2022-11-17T20:06:09.346Z,99199.31
2022-11-17T20:08:37.249Z,99200.66
2022-11-17T20:11:06.971Z,99197.16
2022-11-17T20:13:35.291Z,99207.41
2022-11-17T20:16:11.710Z,99203.91
2022-11-17T20:18:39.599Z,99200.66
2022-11-17T20:21:08.533Z,99210.66
2022-11-17T20:23:37.319Z,99212.00
2022-11-17T20:26:06.469Z,99214.44
2022-11-17T20:28:34.848Z,99218.22
2022-11-17T20:31:09.911Z,99229.25
2022-11-17T20:33:38.156Z,99236.25
2022-11-17T20:36:06.867Z,99239.22
2022-11-17T20:38:35.950Z,99229.81
2022-11-17T20:41:04.538Z,99243.53
2022-11-17T20:43:32.492Z,99245.69
2022-11-17T20:46:00.468Z,99251.91
2022-11-17T20:48:30.284Z,99262.13
2022-11-17T20:50:58.748Z,99268.59
2022-11-17T20:53:26.862Z,99271.84
2022-11-17T20:55:57.033Z,99273.72
2022-11-17T20:58:24.850Z,99275.06
2022-11-17T21:00:52.769Z,99276.94
2022-11-17T21:03:21.032Z,99278.03
2022-11-17T21:05:58.940Z,99279.91
2022-11-17T21:08:28.850Z,99287.75
2022-11-17T21:10:57.031Z,99283.97
2022-11-17T21:13:24.802Z,99286.66
2022-11-17T21:16:03.994Z,99288.03
2022-11-17T21:18:32.187Z,99300.69
2022-11-17T21:21:02.852Z,99297.19
2022-11-17T21:23:30.532Z,99293.16
2022-11-17T21:25:58.259Z,99297.44
2022-11-17T21:28:26.014Z,99294.22
2022-11-17T21:30:53.746Z,99292.59
2022-11-17T21:33:21.414Z,99295.56
2022-11-17T21:35:49.125Z,99299.06
2022-11-17T21:38:18.147Z,99300.94
2022-11-17T21:40:45.843Z,99299.34
2022-11-17T21:43:13.499Z,99306.88
2022-11-17T21:45:41.195Z,99305.00
2022-11-17T21:48:08.921Z,99300.41
2022-11-17T21:50:36.667Z,99314.16
2022-11-17T21:53:04.364Z,99310.91
2022-11-17T21:55:33.420Z,99315.50
2022-11-17T21:58:01.092Z,99320.06
2022-11-17T22:00:29.586Z,99318.44
2022-11-17T22:02:57.279Z,99321.41
2022-11-17T22:05:25.004Z,99332.19
2022-11-17T22:07:52.678Z,99332.19
2022-11-17T22:10:20.407Z,99332.19
2022-11-17T22:12:49.436Z,99330.03
2022-11-17T22:15:17.193Z,99338.38
2022-11-17T22:17:44.952Z,99342.13
2022-11-17T22:20:12.761Z,99337.56
2022-11-17T22:22:40.545Z,99340.53
2022-11-17T22:25:37.584Z,99348.88
2022-11-17T22:27:57.772Z,99349.13
2022-11-17T22:30:25.575Z,99352.09
2022-11-17T22:32:53.232Z,99359.34
2022-11-17T22:35:20.929Z,99363.94
2022-11-17T22:37:49.473Z,99373.63
2022-11-17T22:40:17.276Z,99369.56
2022-11-17T22:42:45.015Z,99373.59
2022-11-17T22:45:14.148Z,99370.34
2022-11-17T22:47:42.302Z,99373.31
2022-11-17T22:50:10.914Z,99370.59
2022-11-17T22:52:38.592Z,99381.09
2022-11-17T22:55:06.823Z,99384.34
2022-11-17T22:57:34.556Z,99387.84
2022-11-17T23:00:02.220Z,99388.91
2022-11-17T23:02:31.248Z,99388.91
2022-11-17T23:04:58.958Z,99389.97
2022-11-17T23:07:26.715Z,99389.97
2022-11-17T23:09:54.443Z,99395.63
2022-11-17T23:12:22.101Z,99399.38
2022-11-17T23:14:49.782Z,99391.56
2022-11-17T23:17:17.478Z,99405.59
2022-11-17T23:19:46.564Z,99410.41
2022-11-17T23:22:14.218Z,99406.91
2022-11-17T23:24:41.964Z,99408.00
2022-11-17T23:27:09.677Z,99420.63
2022-11-17T23:29:37.371Z,99416.59
2022-11-17T23:32:05.459Z,99417.66
2022-11-17T23:34:33.195Z,99417.66
2022-11-17T23:37:03.947Z,99425.72
2022-11-17T23:39:32.369Z,99429.50
2022-11-17T23:42:00.086Z,99431.66
2022-11-17T23:44:28.195Z,99435.16
2022-11-17T23:46:55.927Z,99433.53
2022-11-17T23:49:23.652Z,99431.38
2022-11-17T23:51:51.336Z,99431.66
2022-11-17T23:54:20.339Z,99435.66
2022-11-17T23:56:50.496Z,99430.81
2022-11-17T23:59:18.671Z,99430.56
